Flight Track Log - Related Links

Times and Time Zones

All times are in EDT time to prevent confusion due to time zone crossing. See the RPA3321 flight status page for this flight to view local times or setup timezone preferences in your user account.


Time Position Orientation Groundspeed Altitude Reporting Facility
EDT Latitude Longitude Course Direction KTS MPH feet Rate Location/Type
Mon 05:39:36 AM 42.7256 -73.8053 166° South 151 174 1,300  Level Boston Center
Mon 05:40:25 AM 42.6964 -73.8214 202° Southwest 177 204 2,200 1,960 Climbing Boston Center
Mon 05:42:00 AM 42.4273 -74.0872 180° South  Level Estimated
Mon 05:42:06 AM 42.7578 -73.9106 313° West 225 259 6,200  Level Boston Center
Mon 05:43:00 AM 42.3467 -74.1581 172° South  Level Estimated
Mon 05:43:06 AM 42.7669 -73.9900 279° West 205 236 9,200  Level Boston Center
Mon 05:44:00 AM 42.2661 -74.2287 172° South  Level Estimated
Mon 05:44:06 AM 42.7658 -74.0775 269° West 216 249 11,700  Level Boston Center
Mon 05:45:00 AM 42.1854 -74.2992 166° South  Level Estimated
Mon 05:45:18 AM 42.6861 -74.1094 196° South 210 242 13,200  Level Boston Center
Mon 05:46:18 AM 42.5889 -74.0561 158° South 326 375 15,900 2,200 Climbing Boston Center
Mon 05:47:18 AM 42.5167 -74.0147 157° South 332 382 17,600 2,182 Climbing Boston Center
Mon 05:48:19 AM 42.4050 -73.9556 159° South 351 404 20,300 2,250 Climbing Boston Center
Mon 05:49:18 AM 42.3117 -73.9028 157° South 356 410 22,100 1,765 Climbing Boston Center
Mon 05:50:18 AM 42.2144 -73.8500 158° South 366 421 23,800 1,650 Climbing Boston Center
Mon 05:51:18 AM 42.1131 -73.7975 159° South 378 435 25,400 1,100 Climbing Boston Center
Mon 05:52:18 AM 42.0128 -73.8233 191° South 359 413 26,000 300 Climbing Boston Center
Mon 05:53:18 AM 41.9119 -73.8711 199° South 368 423 26,000  Level Boston Center
Mon 05:55:15 AM 41.7328 -73.9567 200° South 386 444 26,000  Level New York Center
Mon 05:56:16 AM 41.6339 -74.0044 200° South 386 444 26,000  Level New York Center
Mon 05:57:18 AM 41.5283 -74.0519 199° South 377 434 26,000  Level New York Center
Mon 05:58:15 AM 41.4311 -74.0997 200° South 377 434 26,000  Level New York Center
Mon 05:59:15 AM 41.3319 -74.1475 200° South 377 434 26,000  Level New York Center
Mon 06:00:16 AM 41.2392 -74.1925 200° South 377 434 26,000  Level New York Center
Mon 06:01:16 AM 41.1358 -74.2367 198° South 377 434 26,000  Level New York Center
Mon 06:02:16 AM 41.0364 -74.2811 199° South 377 434 26,000  Level New York Center
Mon 06:03:15 AM 40.9392 -74.3311 201° Southwest 382 440 26,000  Level New York Center
Mon 06:04:18 AM 40.8458 -74.3864 204° Southwest 377 434 26,000  Level New York Center
Mon 06:05:15 AM 40.7761 -74.4869 228° Southwest 366 421 26,000  Level New York Center
Mon 06:06:16 AM 40.7061 -74.5872 227° Southwest 371 427 26,000  Level New York Center
Mon 06:07:15 AM 40.6428 -74.6767 227° Southwest 380 437 26,000  Level New York Center
Mon 06:08:15 AM 40.5728 -74.7764 227° Southwest 380 437 26,000  Level New York Center
Mon 06:09:16 AM 40.5006 -74.8758 226° Southwest 380 437 26,000  Level New York Center
Mon 06:10:15 AM 40.4306 -74.9753 227° Southwest 380 437 26,000  Level New York Center
Mon 06:11:16 AM 40.3581 -75.0717 225° Southwest 385 443 26,000 -298 Level New York Center
Mon 06:12:16 AM 40.2856 -75.1733 227° Southwest 385 443 25,400 -958 Descending New York Center
Mon 06:13:15 AM 40.2153 -75.2694 226° Southwest 385 443 24,100 -1,311 Descending New York Center
Mon 06:14:15 AM 40.1469 -75.3656 227° Southwest 380 437 22,800 -1,050 Descending New York Center
Mon 06:15:15 AM 40.0808 -75.4561 226° Southwest 375 432 22,000 -397 Descending New York Center
Mon 06:16:16 AM 40.0167 -75.5519 229° Southwest 363 418 22,000  Level New York Center
Mon 06:17:17 AM 39.9564 -75.6508 232° Southwest 358 412 22,000 -250 Level New York Center
Mon 06:18:16 AM 39.8917 -75.7492 229° Southwest 358 412 21,500 -763 Descending New York Center
Mon 06:19:15 AM 39.8225 -75.8550 230° Southwest 371 427 20,500 -1,000 Descending New York Center
Mon 06:20:16 AM 39.7511 -75.9633 229° Southwest 388 447 19,500 -992 Descending New York Center
Mon 06:21:16 AM 39.6842 -76.0636 229° Southwest 388 447 18,500 -1,737 Descending New York Center
Mon 06:23:26 AM 39.5167 -76.3000 227° Southwest 367 422 14,000 -2,021 Descending Potomac TRACON
Mon 06:24:26 AM 39.4667 -76.4000 237° Southwest 362 417 12,100 -1,800 Descending Potomac TRACON
Mon 06:25:26 AM 39.3833 -76.4833 218° Southwest 362 417 10,400 -1,167 Descending Potomac TRACON
Mon 06:26:14 AM 39.3167 -76.5333 210° Southwest 358 412 10,000 -222 Descending Potomac TRACON
Mon 06:27:14 AM 39.2333 -76.6167 218° Southwest 357 411 10,000  Level Potomac TRACON
Mon 06:28:08 AM 39.1667 -76.6833 218° Southwest 307 353 10,000  Level Potomac TRACON
Mon 06:29:08 AM 39.1333 -76.7667 243° Southwest 285 328 10,000 -474 Level Potomac TRACON
Mon 06:30:02 AM 39.1167 -76.8500 256° West 285 328 9,100 -1,053 Descending Potomac TRACON
Mon 06:31:02 AM 39.0833 -76.9500 247° West 280 322 8,000 -1,350 Descending Potomac TRACON
Mon 06:32:02 AM 39.0500 -77.0333 243° Southwest 276 318 6,400 -2,050 Descending Potomac TRACON
Mon 06:33:02 AM 39.0167 -77.1333 247° West 265 305 3,900 -1,789 Descending Potomac TRACON
Mon 06:33:56 AM 38.9833 -77.1667 218° Southwest 255 293 3,000 -947 Descending Potomac TRACON
Mon 06:34:56 AM 38.9333 -77.1167 142° Southeast 200 230 2,100 -895 Descending Potomac TRACON
Mon 06:35:50 AM 38.9000 -77.0833 142° Southeast 177 204 1,300 -842 Descending Potomac TRACON
Mon 06:36:50 AM 38.8833 -77.0500 123° Southeast 135 155 500 -800 Descending Potomac TRACON

Login

Don't have an account? Register now (free) for customized features, flight alerts, and more!